createdAt,value
2023-05-12T00:01:16.756Z,4.10
2023-05-12T00:04:19.254Z,4.53
2023-05-12T00:07:21.418Z,3.63
2023-05-12T00:10:23.880Z,3.90
2023-05-12T00:13:26.043Z,4.07
2023-05-12T00:16:28.281Z,4.07
2023-05-12T00:19:31.471Z,4.60
2023-05-12T00:22:33.865Z,4.53
2023-05-12T00:25:36.635Z,4.70
2023-05-12T00:28:38.775Z,4.23
2023-05-12T00:31:41.004Z,4.63
2023-05-12T00:34:44.139Z,4.60
2023-05-12T00:37:46.510Z,4.40
2023-05-12T00:40:48.792Z,5.07
2023-05-12T00:43:51.246Z,4.93
2023-05-12T00:46:53.609Z,4.43
2023-05-12T00:49:56.638Z,5.73
2023-05-12T00:53:01.080Z,5.27
2023-05-12T00:56:03.289Z,5.70
2023-05-12T00:59:06.520Z,5.53
2023-05-12T01:02:09.675Z,5.60
2023-05-12T01:05:12.495Z,6.23
2023-05-12T01:08:20.412Z,5.90
2023-05-12T01:11:23.699Z,6.47
2023-05-12T01:14:25.744Z,6.97
2023-05-12T01:17:36.083Z,6.57
2023-05-12T01:20:43.209Z,7.07
2023-05-12T01:23:52.059Z,6.50
2023-05-12T01:26:54.309Z,7.50
2023-05-12T01:29:59.385Z,6.63
2023-05-12T01:33:02.217Z,6.57
2023-05-12T01:36:05.088Z,6.27
2023-05-12T01:39:07.775Z,6.73
2023-05-12T01:42:10.539Z,6.57
2023-05-12T01:45:12.801Z,6.20
2023-05-12T01:48:15.217Z,6.53
2023-05-12T01:51:18.093Z,6.57
2023-05-12T01:54:20.509Z,6.33
2023-05-12T01:57:22.894Z,6.17
2023-05-12T02:00:28.182Z,6.13
2023-05-12T02:03:33.091Z,7.20
2023-05-12T02:06:35.205Z,7.30
2023-05-12T02:09:37.950Z,7.80
2023-05-12T02:12:40.219Z,7.20
2023-05-12T02:15:42.295Z,7.80
2023-05-12T02:18:44.475Z,6.87
2023-05-12T02:21:47.225Z,7.53
2023-05-12T02:24:49.446Z,8.63
2023-05-12T02:27:51.875Z,7.77
2023-05-12T02:30:54.537Z,8.07
2023-05-12T02:33:59.155Z,6.63
2023-05-12T02:37:01.542Z,7.30
2023-05-12T02:40:05.031Z,6.77
2023-05-12T02:43:07.505Z,6.67
2023-05-12T02:46:11.227Z,6.30
2023-05-12T02:49:13.982Z,7.23
2023-05-12T02:52:16.139Z,6.90
2023-05-12T02:55:18.363Z,6.97
2023-05-12T02:58:20.541Z,6.53
2023-05-12T03:01:23.252Z,6.97
2023-05-12T03:04:25.749Z,6.87
2023-05-12T03:07:28.211Z,6.73
2023-05-12T03:10:31.359Z,7.33
2023-05-12T03:13:33.793Z,7.83
2023-05-12T03:16:36.177Z,6.60
2023-05-12T03:19:38.714Z,6.50
2023-05-12T03:22:40.947Z,6.97
2023-05-12T03:25:44.961Z,6.83
2023-05-12T03:28:48.249Z,6.87
2023-05-12T03:31:50.567Z,6.50
2023-05-12T03:34:52.868Z,6.27
2023-05-12T03:37:55.467Z,6.13
2023-05-12T03:41:07.768Z,7.10
2023-05-12T03:44:11.441Z,6.53
2023-05-12T03:47:13.949Z,6.93
2023-05-12T03:50:16.624Z,8.07
2023-05-12T03:53:19.513Z,7.07
2023-05-12T03:56:21.708Z,7.17
2023-05-12T03:59:23.896Z,8.03
2023-05-12T04:02:27.222Z,7.33
2023-05-12T04:05:29.874Z,8.43
2023-05-12T04:08:32.161Z,8.67
2023-05-12T04:11:35.243Z,9.37
2023-05-12T04:14:42.829Z,9.57
2023-05-12T04:17:45.466Z,8.80
2023-05-12T04:20:47.701Z,8.33
2023-05-12T04:23:53.027Z,8.13
2023-05-12T04:26:58.008Z,8.97
2023-05-12T04:30:00.808Z,7.73
2023-05-12T04:33:04.547Z,8.70
2023-05-12T04:36:07.639Z,7.60
2023-05-12T04:39:10.609Z,7.77
2023-05-12T04:42:12.767Z,7.33
2023-05-12T04:45:15.214Z,8.13
2023-05-12T04:48:18.050Z,8.70
2023-05-12T04:51:20.300Z,7.97
2023-05-12T04:54:22.778Z,6.73
2023-05-12T04:57:25.512Z,7.40
2023-05-12T05:00:27.681Z,8.47
2023-05-12T05:03:30.825Z,9.43
2023-05-12T05:06:33.297Z,9.00
2023-05-12T05:09:36.719Z,8.23
2023-05-12T05:12:40.182Z,9.23
2023-05-12T05:15:53.304Z,8.43
2023-05-12T05:18:58.276Z,7.40
2023-05-12T05:22:00.913Z,7.77
2023-05-12T05:25:03.257Z,8.40
2023-05-12T05:28:05.886Z,6.70
2023-05-12T05:31:08.924Z,6.47
2023-05-12T05:34:11.264Z,6.57
2023-05-12T05:37:13.822Z,6.97
2023-05-12T05:40:16.497Z,7.03
2023-05-12T05:43:19.065Z,6.33
2023-05-12T05:46:21.366Z,6.07
2023-05-12T05:49:24.056Z,6.07
2023-05-12T05:52:26.858Z,6.03
2023-05-12T05:55:29.046Z,5.70
2023-05-12T05:58:31.959Z,5.83
2023-05-12T06:01:37.535Z,7.07
2023-05-12T06:04:39.974Z,6.27
2023-05-12T06:07:42.519Z,5.80
2023-05-12T06:10:44.773Z,6.00
2023-05-12T06:13:46.948Z,5.90
2023-05-12T06:16:49.332Z,6.23
2023-05-12T06:19:51.610Z,6.40
2023-05-12T06:22:53.766Z,5.90
2023-05-12T06:25:56.475Z,5.70
2023-05-12T06:28:58.624Z,6.40
2023-05-12T06:32:01.831Z,6.97
2023-05-12T06:35:06.784Z,6.40
2023-05-12T06:38:09.021Z,6.63
2023-05-12T06:41:11.909Z,6.40
2023-05-12T06:44:14.961Z,5.57
2023-05-12T06:47:17.643Z,5.40
2023-05-12T06:50:19.886Z,5.30
2023-05-12T06:53:26.992Z,4.57
2023-05-12T06:56:29.992Z,5.23
2023-05-12T06:59:32.216Z,4.33
2023-05-12T07:02:34.412Z,4.40
2023-05-12T07:05:37.895Z,4.10
2023-05-12T07:08:40.997Z,4.50
2023-05-12T07:11:43.235Z,4.63
2023-05-12T07:14:45.641Z,5.13
2023-05-12T07:17:48.374Z,4.67
2023-05-12T07:20:50.864Z,4.30
2023-05-12T07:23:53.362Z,5.07
2023-05-12T07:26:55.657Z,5.10
2023-05-12T07:29:58.194Z,4.83
2023-05-12T07:33:01.814Z,5.30
2023-05-12T07:36:09.185Z,5.23
2023-05-12T07:39:11.457Z,5.10
2023-05-12T07:42:13.570Z,5.27
2023-05-12T07:45:23.125Z,5.00
2023-05-12T07:48:25.272Z,5.50
2023-05-12T07:51:27.727Z,4.53
2023-05-12T07:54:29.989Z,5.17
2023-05-12T07:57:32.450Z,4.77
2023-05-12T08:00:34.790Z,5.47
2023-05-12T08:03:37.116Z,5.63
2023-05-12T08:06:39.351Z,4.63
2023-05-12T08:09:41.474Z,5.10
2023-05-12T08:12:44.045Z,5.37
2023-05-12T08:15:48.140Z,5.10
2023-05-12T08:18:50.328Z,4.93
2023-05-12T08:21:52.675Z,4.90
2023-05-12T08:24:54.817Z,5.70
2023-05-12T08:27:58.344Z,5.03
2023-05-12T08:31:02.755Z,4.80
2023-05-12T08:34:10.781Z,5.03
2023-05-12T08:37:16.837Z,5.73
2023-05-12T08:40:22.519Z,4.67
2023-05-12T08:43:27.305Z,5.00
2023-05-12T08:46:32.872Z,4.50
2023-05-12T08:49:36.693Z,5.23
2023-05-12T08:52:39.758Z,4.87
2023-05-12T08:55:57.059Z,4.90
2023-05-12T08:59:09.964Z,5.47
2023-05-12T09:02:13.928Z,4.63
2023-05-12T09:05:16.161Z,5.27
2023-05-12T09:08:18.501Z,5.20
2023-05-12T09:11:24.341Z,5.70
2023-05-12T09:14:26.496Z,6.23
2023-05-12T09:17:28.914Z,6.63
2023-05-12T09:20:32.217Z,6.20
2023-05-12T09:23:34.730Z,5.97
2023-05-12T09:26:48.243Z,5.57
2023-05-12T09:29:59.325Z,4.70
2023-05-12T09:33:13.453Z,4.67
2023-05-12T09:36:20.401Z,4.00
2023-05-12T09:39:22.580Z,4.40
2023-05-12T09:42:29.367Z,4.37
2023-05-12T09:45:39.157Z,4.23
2023-05-12T09:48:41.907Z,4.30
2023-05-12T09:51:44.119Z,4.40
2023-05-12T09:54:48.016Z,4.20
2023-05-12T09:57:50.859Z,4.90
2023-05-12T10:04:00.316Z,4.30
2023-05-12T10:07:02.609Z,4.10
2023-05-12T10:10:07.622Z,4.83
2023-05-12T10:13:14.433Z,5.27
2023-05-12T10:16:16.990Z,5.07
2023-05-12T10:19:20.351Z,4.97
2023-05-12T10:22:23.995Z,5.03
2023-05-12T10:25:26.312Z,5.40
2023-05-12T10:28:31.613Z,4.97
2023-05-12T10:31:36.259Z,5.03
2023-05-12T10:34:40.328Z,4.70
2023-05-12T10:37:43.699Z,4.47
2023-05-12T10:41:01.389Z,4.80
2023-05-12T10:44:03.626Z,4.77
2023-05-12T10:47:15.372Z,5.00
2023-05-12T10:50:27.746Z,6.50
2023-05-12T10:53:47.822Z,4.47
2023-05-12T10:56:51.633Z,5.03
2023-05-12T10:59:58.803Z,4.83
2023-05-12T11:03:09.900Z,5.03
2023-05-12T11:06:19.771Z,4.67
2023-05-12T11:09:22.724Z,4.87
2023-05-12T11:12:29.314Z,5.30
2023-05-12T11:15:31.821Z,5.10
2023-05-12T11:18:34.025Z,4.63
2023-05-12T11:21:37.393Z,4.70
2023-05-12T11:24:42.639Z,4.90
2023-05-12T11:27:51.803Z,4.57
2023-05-12T11:30:55.392Z,4.70
2023-05-12T11:34:13.246Z,5.70
2023-05-12T11:37:15.686Z,5.13
2023-05-12T11:40:19.855Z,4.77
2023-05-12T11:43:22.916Z,4.73
2023-05-12T11:46:29.863Z,5.10
2023-05-12T11:49:32.613Z,4.80
2023-05-12T11:52:35.596Z,5.37
2023-05-12T11:55:37.979Z,5.03
2023-05-12T11:58:40.094Z,5.63
2023-05-12T12:01:49.155Z,5.10
2023-05-12T12:04:51.296Z,5.03
2023-05-12T12:08:08.404Z,4.93
2023-05-12T12:11:11.770Z,5.10
2023-05-12T12:14:13.910Z,5.20
2023-05-12T12:17:16.809Z,6.00
2023-05-12T12:20:19.203Z,6.07
2023-05-12T12:23:21.274Z,6.27
2023-05-12T12:26:23.885Z,6.33
2023-05-12T12:29:28.552Z,5.50
2023-05-12T12:32:31.507Z,6.10
2023-05-12T12:35:33.889Z,6.33
2023-05-12T12:38:36.134Z,6.50
2023-05-12T12:41:38.352Z,6.17
2023-05-12T12:44:40.783Z,6.57
2023-05-12T12:47:43.398Z,5.80
2023-05-12T12:50:45.554Z,6.03
2023-05-12T12:53:47.944Z,6.17
2023-05-12T12:56:50.711Z,5.70
2023-05-12T12:59:52.929Z,5.67
2023-05-12T13:02:56.256Z,5.80
2023-05-12T13:05:58.641Z,5.83
2023-05-12T13:09:01.917Z,6.10
2023-05-12T13:12:04.612Z,6.23
2023-05-12T13:15:08.047Z,5.87
2023-05-12T13:18:10.723Z,6.37
2023-05-12T13:21:12.975Z,6.13
2023-05-12T13:24:15.106Z,6.73
2023-05-12T13:27:17.247Z,6.37
2023-05-12T13:30:19.477Z,7.27
2023-05-12T13:33:21.947Z,6.73
2023-05-12T13:36:25.167Z,6.17
2023-05-12T13:39:27.254Z,6.77
2023-05-12T13:42:29.618Z,6.83
2023-05-12T13:45:31.691Z,7.70
2023-05-12T13:48:33.904Z,7.47
2023-05-12T13:51:36.270Z,7.87
2023-05-12T13:54:38.763Z,6.87
2023-05-12T13:57:41.437Z,7.17
2023-05-12T14:00:43.530Z,7.00
2023-05-12T14:03:46.292Z,6.63
2023-05-12T14:06:48.520Z,5.60
2023-05-12T14:09:50.618Z,6.67
2023-05-12T14:12:53.145Z,6.27
2023-05-12T14:15:55.574Z,7.13
2023-05-12T14:18:58.147Z,7.50
2023-05-12T14:22:00.241Z,7.00
2023-05-12T14:25:03.078Z,7.27
2023-05-12T14:28:05.274Z,7.27
2023-05-12T14:31:07.782Z,6.87
2023-05-12T14:34:10.308Z,6.83
2023-05-12T14:37:12.712Z,5.77
2023-05-12T14:40:15.953Z,6.17
2023-05-12T14:43:18.337Z,6.80
2023-05-12T14:46:20.535Z,6.33
2023-05-12T14:49:23.115Z,6.10
2023-05-12T14:52:25.237Z,5.83
2023-05-12T14:55:28.561Z,5.47
2023-05-12T14:58:31.100Z,5.60
2023-05-12T15:01:33.399Z,6.70
2023-05-12T15:04:36.867Z,6.07
2023-05-12T15:07:40.011Z,5.93
2023-05-12T15:10:42.197Z,6.97
2023-05-12T15:13:44.693Z,6.03
2023-05-12T15:16:47.111Z,5.80
2023-05-12T15:19:49.194Z,6.03
2023-05-12T15:22:52.567Z,6.83
2023-05-12T15:25:54.766Z,5.60
2023-05-12T15:28:56.848Z,6.27
2023-05-12T15:31:59.271Z,6.20
2023-05-12T15:35:01.398Z,5.70
2023-05-12T15:38:03.607Z,5.83
2023-05-12T15:41:06.269Z,5.80
2023-05-12T15:44:08.721Z,5.67
2023-05-12T15:47:11.439Z,6.27
2023-05-12T15:50:16.497Z,6.77
2023-05-12T15:53:20.313Z,6.50
2023-05-12T15:56:23.261Z,7.20
2023-05-12T15:59:26.344Z,6.20
2023-05-12T16:02:28.567Z,6.73
2023-05-12T16:05:32.102Z,5.70
2023-05-12T16:08:34.364Z,6.93
2023-05-12T16:11:36.457Z,7.60
2023-05-12T16:14:38.971Z,6.10
2023-05-12T16:17:41.468Z,5.80
2023-05-12T16:20:44.847Z,5.57
2023-05-12T16:23:47.188Z,5.10
2023-05-12T16:26:49.284Z,5.63
2023-05-12T16:29:53.696Z,6.13
2023-05-12T16:32:57.168Z,6.53
2023-05-12T16:35:59.346Z,5.40
2023-05-12T16:39:02.062Z,4.80
2023-05-12T16:42:04.448Z,4.83
2023-05-12T16:45:07.488Z,4.30
2023-05-12T16:48:09.694Z,3.87
2023-05-12T16:51:12.542Z,5.17
2023-05-12T16:54:14.770Z,4.80
2023-05-12T16:57:16.898Z,5.00
2023-05-12T17:00:19.257Z,5.00
2023-05-12T17:03:21.464Z,5.20
2023-05-12T17:06:23.769Z,5.77
2023-05-12T17:09:25.994Z,4.80
2023-05-12T17:12:28.602Z,5.10
2023-05-12T17:15:31.190Z,4.67
2023-05-12T17:21:56.318Z,6.00
2023-05-12T17:24:58.688Z,5.53
2023-05-12T17:28:00.820Z,4.97
2023-05-12T17:31:03.066Z,5.60
2023-05-12T17:34:05.417Z,6.10
2023-05-12T17:37:08.049Z,6.10
2023-05-12T17:40:16.356Z,6.17
2023-05-12T17:43:18.805Z,6.53
2023-05-12T17:46:21.047Z,6.63
2023-05-12T17:49:23.169Z,6.27
2023-05-12T17:52:26.125Z,6.43
2023-05-12T17:55:28.953Z,6.17
2023-05-12T17:58:31.508Z,6.77
2023-05-12T18:01:34.820Z,7.13
2023-05-12T18:04:37.274Z,7.40
2023-05-12T18:07:39.507Z,6.97
2023-05-12T18:10:42.082Z,7.33
2023-05-12T18:13:44.302Z,7.57
2023-05-12T18:16:46.433Z,6.83
2023-05-12T18:19:48.761Z,6.40
2023-05-12T18:22:51.996Z,5.67
2023-05-12T18:25:54.281Z,7.30
2023-05-12T18:28:56.535Z,7.47
2023-05-12T18:31:58.656Z,6.07
2023-05-12T18:35:00.918Z,6.50
2023-05-12T18:38:03.498Z,6.10
2023-05-12T18:41:05.762Z,6.10
2023-05-12T18:44:09.125Z,5.50
2023-05-12T18:47:11.858Z,6.30
2023-05-12T18:50:14.354Z,6.50
2023-05-12T18:53:17.060Z,7.00
2023-05-12T18:56:19.580Z,6.33
2023-05-12T18:59:22.438Z,7.10
2023-05-12T19:02:24.950Z,6.03
2023-05-12T19:05:27.418Z,5.10
2023-05-12T19:08:30.940Z,6.40
2023-05-12T19:11:33.529Z,6.03
2023-05-12T19:14:35.828Z,6.90
2023-05-12T19:17:38.181Z,5.73
2023-05-12T19:20:40.842Z,6.80
2023-05-12T19:23:43.882Z,6.40
2023-05-12T19:26:46.152Z,5.77
2023-05-12T19:29:49.580Z,6.07
2023-05-12T19:32:53.687Z,6.07
2023-05-12T19:35:56.849Z,6.37
2023-05-12T19:39:00.616Z,5.63
2023-05-12T19:42:04.191Z,6.37
2023-05-12T19:45:10.131Z,6.30
2023-05-12T19:48:17.686Z,5.50
2023-05-12T19:51:22.005Z,5.77
2023-05-12T19:54:26.978Z,6.07
2023-05-12T19:57:30.027Z,6.17
2023-05-12T20:00:34.538Z,6.27
2023-05-12T20:03:37.740Z,6.00
2023-05-12T20:06:41.202Z,6.53
2023-05-12T20:09:44.129Z,6.93
2023-05-12T20:12:46.610Z,6.60
2023-05-12T20:15:49.208Z,5.97
2023-05-12T20:18:51.986Z,7.73
2023-05-12T20:21:54.805Z,7.57
2023-05-12T20:25:04.489Z,7.67
2023-05-12T20:28:10.067Z,6.73
2023-05-12T20:31:12.648Z,6.47
2023-05-12T20:34:15.467Z,6.30
2023-05-12T20:37:18.794Z,7.73
2023-05-12T20:40:22.233Z,7.00
2023-05-12T20:43:24.556Z,7.47
2023-05-12T20:46:28.931Z,6.93
2023-05-12T20:49:31.893Z,7.53
2023-05-12T20:52:37.562Z,6.30
2023-05-12T20:55:44.399Z,7.03
2023-05-12T20:58:47.459Z,6.70
2023-05-12T21:01:50.330Z,7.23
2023-05-12T21:04:53.933Z,6.87
2023-05-12T21:07:56.602Z,7.43
2023-05-12T21:11:00.616Z,6.93
2023-05-12T21:14:04.758Z,7.97
2023-05-12T21:17:08.663Z,6.53
2023-05-12T21:20:13.442Z,6.93
2023-05-12T21:23:16.220Z,9.27
2023-05-12T21:26:18.509Z,7.53
2023-05-12T21:29:21.522Z,6.93
2023-05-12T21:32:24.282Z,7.13
2023-05-12T21:35:27.342Z,7.70
2023-05-12T21:38:32.677Z,6.60
2023-05-12T21:41:35.725Z,5.73
2023-05-12T21:44:39.860Z,6.23
2023-05-12T21:47:42.430Z,6.30
2023-05-12T21:50:46.606Z,6.37
2023-05-12T21:53:49.066Z,7.33
2023-05-12T21:56:57.168Z,7.40
2023-05-12T22:00:04.488Z,7.20
2023-05-12T22:03:13.613Z,7.60
2023-05-12T22:06:17.273Z,7.83
2023-05-12T22:09:20.701Z,7.10
2023-05-12T22:12:23.450Z,6.63
2023-05-12T22:15:26.222Z,6.40
2023-05-12T22:18:29.186Z,6.37
2023-05-12T22:21:32.117Z,7.00
2023-05-12T22:24:34.963Z,5.00
2023-05-12T22:27:38.116Z,5.83
2023-05-12T22:30:42.071Z,5.33
2023-05-12T22:33:47.753Z,4.90
2023-05-12T22:36:50.762Z,5.93
2023-05-12T22:39:53.399Z,5.83
2023-05-12T22:42:59.330Z,5.00
2023-05-12T22:46:02.576Z,5.20
2023-05-12T22:49:06.309Z,4.57
2023-05-12T22:52:08.962Z,4.13
2023-05-12T22:55:11.948Z,3.93
2023-05-12T22:58:14.911Z,3.40
2023-05-12T23:01:17.777Z,3.30
2023-05-12T23:04:20.368Z,3.10
2023-05-12T23:07:23.466Z,2.73
2023-05-12T23:10:26.187Z,2.77
2023-05-12T23:13:29.831Z,3.17
2023-05-12T23:16:32.467Z,2.07
2023-05-12T23:19:37.744Z,2.80
2023-05-12T23:22:40.174Z,2.50
2023-05-12T23:25:43.236Z,2.37
2023-05-12T23:28:46.379Z,2.27
2023-05-12T23:31:48.959Z,2.80
2023-05-12T23:34:52.132Z,3.93
2023-05-12T23:37:54.838Z,4.63
2023-05-12T23:40:59.475Z,3.93
2023-05-12T23:44:02.568Z,3.53
2023-05-12T23:47:05.235Z,4.07
2023-05-12T23:50:13.300Z,5.47
2023-05-12T23:53:16.724Z,4.23
2023-05-12T23:56:19.106Z,4.13
2023-05-12T23:59:21.621Z,4.07
